Time;durP1;ratioP1;P1;durP2;ratioP2;P2;SDS_P1;SDS_P2;PMS_P1;PMS_P2;Temp;Humidity;BMP_temperature;BMP_pressure;BME280_temperature;BME280_humidity;BME280_pressure;Samples;Min_cycle;Max_cycle;Signal;HPM_P1;HPM_P2
2022/01/04 00:01:41;;;;;;;10.35;1.52;;;;;;;5.72;56.35;99907.09;5029622;28;20049;-72
2022/01/04 00:04:09;;;;;;;9.90;1.10;;;;;;;5.88;55.78;99887.47;5029904;28;20046;-72
2022/01/04 00:06:34;;;;;;;11.95;1.17;;;;;;;5.84;55.53;99896.28;5014652;28;20096;-72
2022/01/04 00:09:02;;;;;;;11.90;1.10;;;;;;;5.98;55.12;99888.00;5010017;28;20136;-72
2022/01/04 00:11:43;;;;;;;8.07;1.65;;;;;;;5.21;57.65;99878.59;5016295;28;20835;-71
2022/01/04 00:14:11;;;;;;;12.10;1.13;;;;;;;5.55;56.74;99890.38;5016218;28;20045;-72
2022/01/04 00:16:41;;;;;;;13.05;1.38;;;;;;;5.62;56.52;99871.13;5028751;28;20499;-71
2022/01/04 00:19:10;;;;;;;10.18;1.80;;;;;;;5.69;56.44;99878.69;5029374;28;20069;-72
2022/01/04 00:21:37;;;;;;;14.02;1.35;;;;;;;5.52;56.86;99864.53;5029076;28;20123;-72
2022/01/04 00:24:03;;;;;;;12.88;1.85;;;;;;;5.59;56.48;99876.41;5019655;28;20067;-73
2022/01/04 00:26:31;;;;;;;10.90;2.00;;;;;;;5.37;57.03;99870.25;5030413;28;20038;-72
2022/01/04 00:28:57;;;;;;;12.10;2.47;;;;;;;5.18;57.87;99865.72;5014180;28;20052;-72
2022/01/04 00:31:23;;;;;;;10.18;1.90;;;;;;;5.38;56.94;99859.00;5030369;28;20033;-73
2022/01/04 00:33:51;;;;;;;9.93;1.40;;;;;;;5.13;58.02;99859.00;5027707;28;20095;-72
2022/01/04 00:36:17;;;;;;;13.65;2.13;;;;;;;5.45;57.07;99852.72;5016567;28;20037;-71
2022/01/04 00:38:43;;;;;;;16.63;2.08;;;;;;;4.62;59.02;99848.50;5028042;28;20434;-72
2022/01/04 00:41:10;;;;;;;12.27;2.13;;;;;;;5.09;57.94;99845.31;5032022;28;20032;-73
2022/01/04 00:43:36;;;;;;;11.32;1.50;;;;;;;5.60;56.57;99833.19;5018457;28;20124;-73
2022/01/04 00:46:02;;;;;;;15.10;1.80;;;;;;;5.64;56.07;99838.22;5030321;28;20065;-73
2022/01/04 00:50:54;;;;;;;14.15;1.80;;;;;;;5.08;57.97;99833.25;5029080;28;20021;-70
2022/01/04 00:53:29;;;;;;;16.50;1.67;;;;;;;5.22;57.89;99822.44;5019935;28;20049;-70
2022/01/04 00:55:57;;;;;;;14.80;1.88;;;;;;;5.31;57.55;99823.84;5032839;28;20098;-70
2022/01/04 00:58:22;;;;;;;7.93;2.15;;;;;;;4.34;59.87;99812.31;5031589;28;20645;-70
2022/01/04 01:00:48;;;;;;;10.45;1.73;;;;;;;5.25;57.92;99807.59;5031942;28;20492;-70
2022/01/04 01:03:13;;;;;;;8.00;2.13;;;;;;;4.95;58.70;99816.44;5018505;28;20064;-70
2022/01/04 01:05:41;;;;;;;13.40;2.40;;;;;;;5.19;58.28;99813.03;5029833;28;20029;-70
2022/01/04 01:08:06;;;;;;;17.23;3.05;;;;;;;5.41;57.63;99820.91;5016102;28;20060;-71
2022/01/04 01:13:00;;;;;;;18.50;2.60;;;;;;;5.35;57.95;99809.91;5029239;28;20051;-70
2022/01/04 01:15:26;;;;;;;10.75;2.72;;;;;;;5.34;57.76;99805.59;5027074;28;20030;-71
2022/01/04 01:17:51;;;;;;;16.77;3.25;;;;;;;4.59;59.48;99809.78;5019369;28;20044;-71
2022/01/04 01:20:19;;;;;;;12.55;2.70;;;;;;;5.42;57.16;99806.19;5027598;28;20033;-71
2022/01/04 01:22:44;;;;;;;19.17;2.80;;;;;;;5.78;56.41;99792.78;5027357;28;20052;-71
2022/01/04 01:25:13;;;;;;;11.23;3.25;;;;;;;4.76;59.47;99804.06;5015765;28;20613;-70
2022/01/04 01:27:40;;;;;;;18.95;3.72;;;;;;;5.23;57.97;99786.13;5015803;28;20085;-70
2022/01/04 01:30:07;;;;;;;16.23;4.25;;;;;;;4.99;58.94;99780.03;5002630;28;20033;-70
2022/01/04 01:32:33;;;;;;;12.55;3.05;;;;;;;4.96;58.93;99784.47;5008956;28;20040;-70
2022/01/04 01:34:59;;;;;;;14.98;3.33;;;;;;;5.25;58.41;99779.09;5027849;28;20753;-70
2022/01/04 01:37:24;;;;;;;14.90;3.03;;;;;;;4.88;58.60;99773.50;5018516;28;20044;-70
2022/01/04 01:39:50;;;;;;;21.55;4.07;;;;;;;4.97;58.75;99773.22;5024363;28;20510;-71
2022/01/04 01:42:15;;;;;;;16.75;3.63;;;;;;;5.11;58.34;99770.16;5030749;28;20127;-71
2022/01/04 01:44:43;;;;;;;14.45;3.25;;;;;;;5.02;58.71;99768.72;5029339;28;20034;-71
2022/01/04 01:47:09;;;;;;;8.77;2.72;;;;;;;5.60;57.02;99764.03;5005136;28;20064;-71
2022/01/04 01:49:35;;;;;;;23.77;4.28;;;;;;;5.48;57.30;99759.31;5018119;28;20029;-73
2022/01/04 01:52:03;;;;;;;16.30;3.38;;;;;;;5.40;57.72;99756.16;5033700;28;20488;-72
2022/01/04 01:54:28;;;;;;;17.17;5.05;;;;;;;5.59;57.07;99751.13;5031530;28;20535;-72
2022/01/04 01:56:54;;;;;;;13.85;3.55;;;;;;;5.72;56.49;99751.53;5014607;28;20041;-72
2022/01/04 01:59:20;;;;;;;20.17;2.65;;;;;;;5.84;56.46;99744.13;5033329;28;20083;-72
2022/01/04 02:01:45;;;;;;;15.70;3.97;;;;;;;5.77;56.95;99741.81;5014542;28;20061;-71
2022/01/04 02:04:11;;;;;;;8.70;3.17;;;;;;;5.80;56.76;99744.31;5033480;28;20060;-72
2022/01/04 02:06:41;;;;;;;12.80;3.28;;;;;;;5.95;56.79;99741.13;5012613;28;20025;-72
2022/01/04 02:09:06;;;;;;;10.18;2.92;;;;;;;5.81;56.68;99735.59;5032898;28;20471;-72
2022/01/04 02:11:34;;;;;;;23.63;4.28;;;;;;;5.52;57.57;99737.53;5020811;28;20033;-73
2022/01/04 02:14:01;;;;;;;11.27;3.42;;;;;;;5.45;57.32;99733.50;5016099;28;20057;-71
2022/01/04 02:16:28;;;;;;;19.65;3.67;;;;;;;5.84;57.03;99730.31;5030317;28;20049;-72
2022/01/04 02:19:06;;;;;;;17.92;3.13;;;;;;;6.10;55.74;99721.50;5030718;28;20041;-72
2022/01/04 02:21:33;;;;;;;17.33;3.88;;;;;;;5.49;57.32;99716.94;5028789;28;20128;-72
2022/01/04 02:23:59;;;;;;;11.95;3.15;;;;;;;6.11;56.21;99717.19;5029999;28;20046;-72
2022/01/04 02:26:30;;;;;;;19.60;3.42;;;;;;;5.60;57.30;99719.97;5030959;28;20032;-72
2022/01/04 02:28:55;;;;;;;12.82;2.60;;;;;;;6.13;55.78;99718.81;5014073;28;20045;-71
2022/01/04 02:31:21;;;;;;;16.30;4.10;;;;;;;5.93;56.57;99711.81;5022030;28;20083;-71
2022/01/04 02:33:47;;;;;;;24.55;3.45;;;;;;;6.31;55.58;99713.78;5029423;28;20041;-73
2022/01/04 02:36:12;;;;;;;5.63;3.22;;;;;;;5.72;56.92;99705.69;5032408;28;20639;-71
2022/01/04 02:38:38;;;;;;;18.92;3.28;;;;;;;6.16;55.49;99689.28;5029764;28;20079;-71
2022/01/04 02:41:03;;;;;;;13.05;2.80;;;;;;;6.13;55.26;99684.22;5033346;28;20703;-72
2022/01/04 02:43:29;;;;;;;14.50;3.35;;;;;;;6.37;54.93;99687.59;5030487;28;20045;-71
2022/01/04 02:45:57;;;;;;;14.77;2.63;;;;;;;6.29;55.45;99680.13;5017026;28;20033;-71
2022/01/04 02:48:25;;;;;;;16.55;2.97;;;;;;;6.01;56.07;99686.41;5030328;28;20693;-71
2022/01/04 02:50:51;;;;;;;19.98;4.07;;;;;;;6.03;56.34;99684.59;5031592;28;20040;-71
2022/01/04 02:53:20;;;;;;;17.90;3.88;;;;;;;6.19;55.45;99674.44;5022161;28;20057;-71
2022/01/04 02:55:45;;;;;;;14.20;3.58;;;;;;;5.96;56.31;99670.19;5027838;28;20102;-71
2022/01/04 02:58:11;;;;;;;14.57;2.80;;;;;;;5.36;57.72;99671.66;5007406;28;20053;-72
2022/01/04 03:00:37;;;;;;;17.20;4.05;;;;;;;6.20;55.69;99659.72;5014303;28;20550;-72
2022/01/04 03:03:02;;;;;;;8.55;2.67;;;;;;;6.07;56.24;99665.41;5005474;28;20041;-72
2022/01/04 03:05:28;;;;;;;19.17;3.00;;;;;;;6.02;56.29;99662.16;5016158;28;20518;-72
2022/01/04 03:07:53;;;;;;;16.02;4.18;;;;;;;6.01;56.39;99660.44;5004968;28;20050;-72
2022/01/04 03:10:21;;;;;;;11.52;3.50;;;;;;;6.38;55.28;99656.41;5030954;28;20044;-72
2022/01/04 03:12:52;;;;;;;12.27;3.15;;;;;;;6.02;56.06;99656.13;5031732;28;20045;-72
2022/01/04 03:15:20;;;;;;;21.52;2.78;;;;;;;6.18;55.76;99656.34;5018780;28;20087;-74
2022/01/04 03:17:46;;;;;;;8.13;2.80;;;;;;;6.37;55.17;99646.91;5018349;28;20045;-71
2022/01/04 03:20:11;;;;;;;17.27;2.92;;;;;;;6.31;55.32;99639.41;5018938;28;20072;-70
2022/01/04 03:22:37;;;;;;;10.05;2.40;;;;;;;6.14;56.00;99631.44;5030004;28;20099;-70
2022/01/04 03:25:03;;;;;;;19.35;3.20;;;;;;;6.00;56.26;99630.25;5026821;28;20072;-71
2022/01/04 03:27:29;;;;;;;23.33;3.38;;;;;;;5.99;56.43;99633.72;5030764;28;20045;-73
2022/01/04 03:29:55;;;;;;;10.75;4.03;;;;;;;5.60;57.66;99628.41;5029114;28;20068;-71
2022/01/04 03:32:20;;;;;;;22.98;4.15;;;;;;;5.77;57.08;99625.13;5013933;28;20061;-72
2022/01/04 03:34:45;;;;;;;18.05;4.15;;;;;;;5.73;57.30;99626.19;5025466;28;20040;-71
2022/01/04 03:37:13;;;;;;;12.57;2.90;;;;;;;5.58;57.74;99619.84;5029949;28;20128;-70
2022/01/04 03:39:39;;;;;;;9.80;3.10;;;;;;;6.01;56.51;99621.53;5029349;28;20034;-71
2022/01/04 03:42:05;;;;;;;11.18;3.40;;;;;;;6.26;55.58;99617.94;5020169;28;20485;-70
2022/01/04 03:44:31;;;;;;;15.07;4.07;;;;;;;5.61;57.66;99610.22;5029488;28;20068;-70
2022/01/04 03:46:56;;;;;;;16.55;3.90;;;;;;;5.92;56.78;99603.78;5029882;28;20064;-70
2022/01/04 03:49:30;;;;;;;22.08;3.35;;;;;;;5.90;56.33;99589.19;5032156;28;20021;-72
2022/01/04 03:51:56;;;;;;;14.82;3.60;;;;;;;5.87;56.71;99595.34;5017562;28;20037;-72
2022/01/04 03:54:22;;;;;;;17.38;4.10;;;;;;;5.78;56.99;99581.00;5030322;28;20052;-70
2022/01/04 03:56:50;;;;;;;16.40;3.45;;;;;;;5.95;56.54;99580.31;5028119;28;20036;-72
2022/01/04 03:59:21;;;;;;;17.05;3.50;;;;;;;5.78;56.91;99577.56;5030133;28;20127;-73
2022/01/04 04:01:49;;;;;;;13.55;3.55;;;;;;;5.99;56.19;99576.66;5028092;28;20029;-73
2022/01/04 04:04:16;;;;;;;19.95;3.33;;;;;;;5.51;57.39;99572.59;5029624;28;20032;-74
2022/01/04 04:06:42;;;;;;;8.98;3.72;;;;;;;5.28;57.89;99560.53;5029529;28;20052;-72
2022/01/04 04:09:08;;;;;;;6.35;1.95;;;;;;;5.31;58.04;99557.00;5019273;28;20037;-73
2022/01/04 04:11:38;;;;;;;14.20;2.90;;;;;;;5.52;57.61;99550.94;5025867;28;20029;-72
2022/01/04 04:14:06;;;;;;;7.18;2.15;;;;;;;5.32;57.89;99551.72;5013875;28;20084;-74
2022/01/04 04:16:33;;;;;;;18.10;2.72;;;;;;;5.45;57.56;99541.72;5025517;28;20088;-73
2022/01/04 04:18:59;;;;;;;4.35;2.03;;;;;;;5.84;56.07;99533.25;5021200;28;20415;-73
2022/01/04 04:21:24;;;;;;;8.20;2.38;;;;;;;5.75;56.57;99524.09;5028558;28;20116;-74
2022/01/04 04:23:50;;;;;;;10.93;2.63;;;;;;;5.68;56.26;99517.47;5028447;28;20087;-73
2022/01/04 04:26:15;;;;;;;13.15;2.30;;;;;;;5.81;56.31;99518.63;5031520;28;20115;-73
2022/01/04 04:28:41;;;;;;;14.55;2.58;;;;;;;5.30;58.08;99521.59;5010391;28;20060;-73
2022/01/04 04:31:08;;;;;;;12.00;3.22;;;;;;;5.40;57.70;99516.00;5019650;28;20045;-73
2022/01/04 04:33:36;;;;;;;7.68;2.45;;;;;;;5.52;57.38;99496.50;5027101;28;20045;-73
2022/01/04 04:36:17;;;;;;;17.38;3.70;;;;;;;5.62;57.28;99500.44;5017407;28;20029;-73
2022/01/04 04:38:42;;;;;;;11.35;3.88;;;;;;;5.65;57.67;99492.50;5026423;28;20044;-71
2022/01/04 04:41:08;;;;;;;9.90;4.05;;;;;;;5.82;57.31;99499.59;5029017;28;20041;-70
2022/01/04 04:43:33;;;;;;;15.02;4.18;;;;;;;5.39;58.80;99506.56;5027633;28;20041;-71
2022/01/04 04:46:01;;;;;;;21.90;4.65;;;;;;;5.63;57.90;99490.88;5030730;28;20029;-71
2022/01/04 04:48:29;;;;;;;8.32;3.33;;;;;;;5.40;58.70;99486.66;5027231;28;20052;-71
2022/01/04 04:50:55;;;;;;;11.30;4.93;;;;;;;5.21;58.72;99497.78;5014281;28;20983;-71
2022/01/04 04:53:20;;;;;;;10.15;3.55;;;;;;;5.38;58.37;99491.06;5002885;28;20041;-71
2022/01/04 04:55:48;;;;;;;14.75;3.10;;;;;;;5.80;57.35;99490.19;5028256;28;20043;-71
2022/01/04 04:58:13;;;;;;;9.15;2.70;;;;;;;5.78;57.44;99484.22;5016845;28;20160;-71
2022/01/04 05:00:39;;;;;;;12.52;3.25;;;;;;;5.91;56.54;99482.81;5030154;28;20112;-71
2022/01/04 05:03:05;;;;;;;9.70;3.63;;;;;;;5.55;57.93;99474.84;5013230;28;20120;-73
2022/01/04 05:05:30;;;;;;;18.38;3.00;;;;;;;5.36;58.50;99480.75;5014139;28;20032;-71
2022/01/04 05:07:58;;;;;;;11.07;2.60;;;;;;;5.60;57.68;99468.53;5009907;28;20044;-70
2022/01/04 05:10:23;;;;;;;10.63;3.90;;;;;;;5.51;58.68;99470.69;5026973;28;20029;-71
2022/01/04 05:12:49;;;;;;;15.05;3.95;;;;;;;5.90;57.47;99462.94;5012332;28;20125;-71
2022/01/04 05:15:14;;;;;;;19.63;4.55;;;;;;;5.31;59.24;99472.31;5028404;28;20033;-72
2022/01/04 05:17:40;;;;;;;14.48;4.88;;;;;;;5.61;58.79;99484.94;5013810;28;20072;-71
2022/01/04 05:20:06;;;;;;;13.00;4.55;;;;;;;5.44;59.08;99486.47;5031638;28;20029;-70
2022/01/04 05:22:32;;;;;;;12.90;3.90;;;;;;;5.33;58.81;99478.28;5032795;28;20053;-70
2022/01/04 05:24:57;;;;;;;13.23;4.57;;;;;;;5.42;58.78;99474.50;5033613;28;20048;-70
2022/01/04 05:27:25;;;;;;;9.65;3.03;;;;;;;4.95;59.41;99480.66;5032123;28;20416;-70
2022/01/04 05:29:50;;;;;;;11.10;4.13;;;;;;;5.43;58.34;99466.63;5000470;28;20124;-70
2022/01/04 05:32:16;;;;;;;9.23;4.13;;;;;;;5.24;58.72;99448.41;5017252;28;20065;-70
2022/01/04 05:34:41;;;;;;;15.75;4.78;;;;;;;5.69;57.52;99458.69;5017560;28;20029;-71
2022/01/04 05:37:07;;;;;;;12.27;3.97;;;;;;;5.66;57.63;99463.09;5022809;28;20283;-70
2022/01/04 05:39:33;;;;;;;17.33;4.25;;;;;;;4.71;60.42;99458.28;5006796;28;20037;-70
2022/01/04 05:41:58;;;;;;;13.13;4.40;;;;;;;5.65;57.63;99443.25;5030772;28;20029;-71
2022/01/04 05:44:26;;;;;;;16.05;3.85;;;;;;;4.96;59.63;99440.06;5032716;28;20472;-70
2022/01/04 05:46:51;;;;;;;6.35;3.42;;;;;;;5.15;59.00;99435.00;5029740;28;20119;-70
2022/01/04 05:49:17;;;;;;;12.77;4.05;;;;;;;5.43;58.40;99420.00;5033051;28;20067;-70
2022/01/04 05:51:44;;;;;;;15.70;4.20;;;;;;;5.39;58.80;99420.19;5017680;28;21001;-71
2022/01/04 05:54:10;;;;;;;10.40;4.55;;;;;;;5.82;57.66;99406.25;5033165;28;20043;-71
2022/01/04 05:56:35;;;;;;;18.52;5.53;;;;;;;5.80;57.15;99404.63;5030818;28;20088;-75
2022/01/04 05:59:01;;;;;;;20.95;5.22;;;;;;;5.79;57.79;99401.22;5030989;28;20049;-72
2022/01/04 06:01:26;;;;;;;18.92;5.05;;;;;;;5.63;58.10;99395.81;5029818;28;20155;-73
2022/01/04 06:03:52;;;;;;;15.88;4.43;;;;;;;5.96;57.09;99392.66;5031101;28;20052;-72
2022/01/04 06:06:30;;;;;;;20.23;5.88;;;;;;;6.12;56.61;99386.81;5033087;28;20029;-72
2022/01/04 06:08:55;;;;;;;16.92;4.85;;;;;;;6.19;56.54;99395.97;5031863;28;20040;-71
2022/01/04 06:16:45;;;;;;;11.63;5.28;;;;;;;5.95;57.31;99380.63;5012251;28;20738;-71
2022/01/04 06:19:11;;;;;;;20.38;5.05;;;;;;;6.06;57.17;99383.59;5022164;28;20036;-71
2022/01/04 06:21:38;;;;;;;17.80;5.13;;;;;;;5.45;58.50;99375.88;5031664;28;20025;-70
2022/01/04 06:24:07;;;;;;;19.20;5.20;;;;;;;5.66;57.91;99369.78;5012513;28;20044;-71
2022/01/04 06:26:33;;;;;;;18.50;5.15;;;;;;;5.55;58.39;99377.19;5013003;28;20040;-70
2022/01/04 06:28:59;;;;;;;16.33;4.93;;;;;;;5.92;57.38;99372.97;5031545;28;20541;-70
2022/01/04 06:31:28;;;;;;;17.42;4.80;;;;;;;5.70;58.04;99375.66;5032995;28;20037;-72
2022/01/04 06:33:54;;;;;;;28.10;6.50;;;;;;;5.68;58.68;99377.47;5007790;28;20055;-71
2022/01/04 06:36:20;;;;;;;24.80;5.93;;;;;;;5.91;57.14;99373.88;5033204;28;20783;-70
2022/01/04 06:38:46;;;;;;;23.52;5.85;;;;;;;5.73;58.11;99365.16;5019605;28;20045;-71
2022/01/04 06:41:11;;;;;;;10.82;5.10;;;;;;;6.15;56.82;99360.72;5033209;28;20447;-72
2022/01/04 06:43:37;;;;;;;18.20;5.55;;;;;;;5.43;58.68;99362.16;5030517;28;20123;-72
2022/01/04 06:46:06;;;;;;;10.65;3.90;;;;;;;5.46;58.71;99362.03;5033151;28;20037;-72
2022/01/04 06:48:31;;;;;;;20.08;5.50;;;;;;;5.49;58.12;99361.88;5030925;28;20119;-73
2022/01/04 06:50:57;;;;;;;14.90;4.13;;;;;;;5.56;58.13;99358.13;5031783;28;20120;-71
2022/01/04 06:53:25;;;;;;;14.95;5.13;;;;;;;5.81;57.86;99364.81;5030969;28;20053;-70
2022/01/04 06:55:52;;;;;;;18.13;5.25;;;;;;;5.50;58.21;99368.75;5031038;28;20120;-71
2022/01/04 06:58:17;;;;;;;18.55;4.78;;;;;;;5.82;57.44;99371.72;5031949;28;20088;-71
2022/01/04 07:00:45;;;;;;;17.15;5.80;;;;;;;5.69;57.48;99362.78;5032112;28;20032;-71
2022/01/04 07:03:11;;;;;;;15.77;6.00;;;;;;;5.74;57.53;99366.00;5031963;28;20107;-71
2022/01/04 07:05:36;;;;;;;18.13;4.82;;;;;;;5.59;58.13;99363.19;5031106;28;20035;-71
2022/01/04 07:08:04;;;;;;;28.73;6.38;;;;;;;6.16;56.16;99358.06;5019008;28;20040;-71
2022/01/04 07:10:29;;;;;;;18.77;5.10;;;;;;;6.32;55.77;99354.78;5023455;28;20021;-72
2022/01/04 07:13:02;;;;;;;19.95;4.72;;;;;;;6.00;56.88;99363.09;5024262;28;20115;-74
2022/01/04 07:15:30;;;;;;;22.25;5.65;;;;;;;6.13;56.92;99359.94;5025103;28;20029;-70
2022/01/04 07:17:58;;;;;;;15.80;5.13;;;;;;;6.22;56.40;99351.75;5020224;28;20108;-71
2022/01/04 07:20:26;;;;;;;15.80;6.10;;;;;;;6.24;56.45;99352.53;5033416;28;20037;-71
2022/01/04 07:22:58;;;;;;;16.70;4.90;;;;;;;5.80;57.58;99345.00;5030442;28;20116;-72
2022/01/04 07:25:24;;;;;;;17.55;5.43;;;;;;;5.75;57.73;99339.16;5016754;28;20051;-73
2022/01/04 07:27:50;;;;;;;23.20;7.57;;;;;;;5.33;59.28;99340.16;5012597;28;20607;-71
2022/01/04 07:30:17;;;;;;;17.13;6.88;;;;;;;5.73;58.57;99333.22;5011289;28;20257;-72
2022/01/04 07:32:48;;;;;;;26.85;7.82;;;;;;;5.99;57.22;99330.28;5014212;28;20049;-72
2022/01/04 07:35:13;;;;;;;21.60;6.90;;;;;;;5.71;57.90;99335.03;5011871;28;20094;-72
2022/01/04 07:37:41;;;;;;;22.08;7.05;;;;;;;5.60;58.45;99332.91;5029728;28;20045;-72
2022/01/04 07:40:07;;;;;;;19.23;7.38;;;;;;;5.74;58.01;99330.53;5012652;28;20464;-71
2022/01/04 07:42:33;;;;;;;21.35;8.15;;;;;;;5.91;57.51;99335.00;5027984;28;20580;-71
2022/01/04 07:44:58;;;;;;;19.25;8.52;;;;;;;5.99;57.12;99330.28;5031566;28;20154;-72
2022/01/04 07:47:28;;;;;;;18.85;7.40;;;;;;;6.08;56.87;99332.47;5003926;28;20048;-72
2022/01/04 07:49:54;;;;;;;25.65;5.93;;;;;;;6.00;56.93;99334.56;5017113;28;20044;-72
2022/01/04 07:52:21;;;;;;;14.52;6.18;;;;;;;5.65;58.42;99318.00;5031003;28;20053;-72
2022/01/04 07:54:47;;;;;;;19.20;7.43;;;;;;;5.90;57.87;99328.09;5029229;28;20067;-73
2022/01/04 07:57:14;;;;;;;28.08;6.53;;;;;;;5.92;57.42;99330.63;5030408;28;20080;-72
2022/01/04 07:59:42;;;;;;;31.40;7.32;;;;;;;6.11;57.00;99320.28;5028764;28;20033;-72
2022/01/04 08:02:07;;;;;;;17.33;6.28;;;;;;;5.94;57.31;99329.66;5028815;28;20090;-72
2022/01/04 08:04:33;;;;;;;27.33;6.35;;;;;;;5.28;59.35;99335.16;5011493;28;20037;-72
2022/01/04 08:06:59;;;;;;;13.48;5.75;;;;;;;5.64;58.55;99330.13;5026982;28;20511;-72
2022/01/04 08:09:24;;;;;;;23.48;6.88;;;;;;;5.95;57.26;99327.91;5030543;28;20443;-71
2022/01/04 08:11:51;;;;;;;19.02;6.88;;;;;;;5.61;58.22;99319.91;5026213;28;20029;-71
2022/01/04 08:14:18;;;;;;;15.63;5.65;;;;;;;5.73;57.82;99317.69;5030001;28;20037;-71
2022/01/04 08:16:44;;;;;;;19.92;6.78;;;;;;;5.66;57.47;99312.75;5026942;28;20842;-72
2022/01/04 08:19:14;;;;;;;23.70;6.57;;;;;;;5.34;58.86;99316.75;5030509;28;20041;-71
2022/01/04 08:21:40;;;;;;;12.85;5.82;;;;;;;5.88;57.33;99309.19;5028594;28;20507;-72
2022/01/04 08:24:06;;;;;;;17.38;6.55;;;;;;;5.99;56.88;99312.13;5011334;28;20051;-72
2022/01/04 08:26:31;;;;;;;17.00;5.72;;;;;;;6.13;56.69;99308.06;5001577;28;20495;-73
2022/01/04 08:28:59;;;;;;;23.75;7.18;;;;;;;6.18;56.35;99298.31;5028964;28;20072;-71
2022/01/04 08:31:27;;;;;;;26.75;8.15;;;;;;;6.05;56.79;99300.63;5028429;28;20662;-73
2022/01/04 08:33:54;;;;;;;19.08;6.15;;;;;;;6.14;56.44;99296.78;5028383;28;20033;-72
2022/01/04 08:36:26;;;;;;;28.23;6.03;;;;;;;6.01;57.22;99293.91;5012627;28;20043;-72
2022/01/04 08:38:52;;;;;;;15.63;6.22;;;;;;;5.97;57.44;99295.81;5015691;28;20044;-72
2022/01/04 08:41:17;;;;;;;16.85;6.10;;;;;;;5.82;57.14;99292.16;5030707;28;20237;-72
2022/01/04 08:43:45;;;;;;;24.33;5.88;;;;;;;5.69;57.35;99285.03;5025297;28;20069;-72
2022/01/04 08:46:14;;;;;;;16.08;6.18;;;;;;;5.75;56.93;99279.53;5029241;28;20128;-73
2022/01/04 08:48:39;;;;;;;12.07;3.90;;;;;;;5.39;57.93;99282.84;5030390;28;20038;-73
2022/01/04 08:51:07;;;;;;;11.15;3.28;;;;;;;4.81;58.95;99287.00;4997648;28;20407;-72
2022/01/04 08:53:33;;;;;;;7.93;1.88;;;;;;;5.60;57.43;99287.09;5028890;28;20040;-73
2022/01/04 08:56:01;;;;;;;6.45;3.22;;;;;;;5.27;57.89;99293.78;5027788;28;20033;-72
2022/01/04 08:58:31;;;;;;;16.92;2.45;;;;;;;5.94;55.59;99292.50;5028209;28;20037;-72
2022/01/04 09:00:56;;;;;;;4.93;1.67;;;;;;;5.46;56.57;99299.84;5028245;28;20056;-72
2022/01/04 09:03:24;;;;;;;11.50;1.35;;;;;;;5.25;57.13;99302.44;5019442;28;20048;-72
2022/01/04 09:05:53;;;;;;;5.07;1.55;;;;;;;5.28;56.92;99298.91;5028583;28;20076;-72
2022/01/04 09:08:21;;;;;;;5.28;1.00;;;;;;;5.49;56.75;99304.88;5009076;28;20180;-72
2022/01/04 09:10:46;;;;;;;9.60;0.63;;;;;;;5.38;57.24;99307.09;5027879;28;20759;-72
2022/01/04 09:13:17;;;;;;;8.43;1.40;;;;;;;5.38;57.03;99301.91;5025939;28;20049;-72
2022/01/04 09:20:58;;;;;;;7.18;1.38;;;;;;;4.77;58.78;99323.44;5027905;28;20334;-72
2022/01/04 09:23:29;;;;;;;3.25;1.35;;;;;;;5.25;57.54;99343.88;5011032;28;20080;-72
2022/01/04 09:25:55;;;;;;;6.53;1.27;;;;;;;5.40;56.86;99339.81;5026725;28;20033;-72
2022/01/04 09:28:24;;;;;;;9.27;0.85;;;;;;;5.43;56.52;99349.19;5016588;28;20058;-72
2022/01/04 09:30:51;;;;;;;4.00;0.40;;;;;;;5.04;56.88;99342.22;5028553;28;20025;-73
2022/01/04 09:33:20;;;;;;;3.08;0.47;;;;;;;4.90;56.82;99340.19;5027101;28;20045;-72
2022/01/04 09:35:51;;;;;;;4.80;0.60;;;;;;;5.14;56.40;99356.44;5025348;28;20039;-72
2022/01/04 09:38:18;;;;;;;7.50;0.30;;;;;;;5.36;55.69;99352.97;4994244;28;20202;-73
2022/01/04 09:40:48;;;;;;;3.70;0.40;;;;;;;5.32;55.93;99354.81;4992502;28;20133;-73
2022/01/04 09:43:14;;;;;;;3.13;0.70;;;;;;;5.28;56.22;99355.88;5025839;28;20045;-74
2022/01/04 09:45:40;;;;;;;3.63;0.47;;;;;;;5.34;55.32;99358.19;4998754;28;20569;-74
2022/01/04 09:48:06;;;;;;;2.55;0.10;;;;;;;5.15;54.97;99368.50;5011864;28;20465;-74
2022/01/04 09:50:37;;;;;;;3.42;0.10;;;;;;;5.02;55.18;99365.56;5027075;28;20056;-73
2022/01/04 09:53:06;;;;;;;8.80;0.80;;;;;;;4.97;55.32;99374.44;5015009;28;20092;-73
2022/01/04 09:55:38;;;;;;;1.23;0.20;;;;;;;5.21;54.63;99376.03;5025074;28;20025;-73
2022/01/04 09:58:04;;;;;;;2.22;0.08;;;;;;;4.53;55.56;99377.84;5025430;28;20049;-73
2022/01/04 10:00:30;;;;;;;1.23;0.15;;;;;;;4.95;54.65;99371.06;4994322;28;20037;-73
2022/01/04 10:03:14;;;;;;;4.47;0.38;;;;;;;5.18;53.72;99376.13;4999970;28;20526;-74
2022/01/04 10:05:42;;;;;;;10.65;0.50;;;;;;;5.10;54.10;99370.44;4999195;28;20033;-74
2022/01/04 10:08:09;;;;;;;1.90;0.10;;;;;;;4.79;54.80;99376.00;5017352;28;20049;-73
2022/01/04 10:10:36;;;;;;;3.97;0.20;;;;;;;5.15;54.02;99381.44;5025780;28;20078;-74
2022/01/04 10:13:05;;;;;;;2.13;0.10;;;;;;;5.01;53.91;99381.16;5029584;28;20106;-73
2022/01/04 10:15:33;;;;;;;9.23;0.85;;;;;;;4.87;54.22;99373.09;5028782;28;20036;-72
2022/01/04 10:18:03;;;;;;;6.53;0.13;;;;;;;5.01;53.72;99376.84;5027063;28;20053;-73
2022/01/04 10:20:29;;;;;;;1.67;0.20;;;;;;;5.03;53.60;99375.03;5009179;28;20034;-73
2022/01/04 10:22:55;;;;;;;4.25;0.25;;;;;;;4.77;53.96;99373.47;5028956;28;20052;-72
2022/01/04 10:25:20;;;;;;;2.05;0.13;;;;;;;4.69;53.91;99367.72;5029433;28;20637;-73
2022/01/04 10:27:51;;;;;;;7.70;0.30;;;;;;;4.82;53.07;99376.69;5013769;28;20032;-73
2022/01/04 10:30:26;;;;;;;3.75;0.50;;;;;;;4.45;54.04;99381.63;5025509;28;20063;-72
2022/01/04 10:33:19;;;;;;;8.50;1.85;;;;;;;4.53;54.33;99395.13;5013243;28;20545;-73
2022/01/04 10:35:49;;;;;;;0.17;0.00;;;;;;;4.24;55.05;99397.06;5016861;28;20535;-73
2022/01/04 10:38:22;;;;;;;3.35;0.10;;;;;;;4.43;54.73;99400.66;5025725;28;20045;-73
2022/01/04 10:41:10;;;;;;;2.58;0.25;;;;;;;4.23;55.20;99395.41;5029606;28;20048;-74
2022/01/04 10:43:43;;;;;;;0.88;0.10;;;;;;;3.70;57.26;99395.59;5019260;28;20056;-73
2022/01/04 10:46:11;;;;;;;0.70;0.10;;;;;;;3.62;57.23;99395.84;5014517;28;20486;-73
2022/01/04 10:48:45;;;;;;;1.75;0.10;;;;;;;3.54;57.42;99403.03;5004673;28;20049;-73
2022/01/04 10:51:13;;;;;;;0.30;0.22;;;;;;;3.26;58.47;99397.91;5028201;28;20384;-75
2022/01/04 10:53:46;;;;;;;4.20;0.17;;;;;;;3.41;58.27;99399.19;5009926;28;20164;-73
2022/01/04 10:56:18;;;;;;;6.28;0.52;;;;;;;3.76;57.06;99390.19;5028780;28;20048;-72
2022/01/04 10:58:46;;;;;;;2.40;0.10;;;;;;;3.71;57.42;99392.09;4981402;28;20290;-74
2022/01/04 11:01:14;;;;;;;4.22;0.10;;;;;;;3.83;56.83;99389.09;5026669;28;20100;-73
2022/01/04 11:03:46;;;;;;;2.03;0.20;;;;;;;3.71;56.81;99379.16;5026459;28;20167;-72
2022/01/04 11:06:28;;;;;;;1.35;0.10;;;;;;;3.60;57.82;99382.13;5010991;28;20045;-73
2022/01/04 11:08:54;;;;;;;1.27;0.10;;;;;;;3.76;57.28;99382.44;5015199;28;20053;-73
2022/01/04 11:11:22;;;;;;;3.83;0.10;;;;;;;3.65;57.01;99381.97;5016836;28;20041;-72
2022/01/04 11:13:51;;;;;;;2.17;0.20;;;;;;;3.54;57.61;99378.03;5024896;28;20045;-72
2022/01/04 11:16:18;;;;;;;4.78;0.10;;;;;;;3.52;57.51;99382.41;5029130;28;20030;-72
2022/01/04 11:18:50;;;;;;;1.80;1.00;;;;;;;3.50;56.94;99373.03;5009638;28;20495;-73
2022/01/04 11:21:20;;;;;;;5.93;0.20;;;;;;;3.41;57.23;99369.00;5031625;28;20036;-72
2022/01/04 11:23:47;;;;;;;3.17;0.73;;;;;;;3.91;56.65;99365.53;5011192;28;20049;-72
2022/01/04 11:26:13;;;;;;;0.85;0.13;;;;;;;4.03;55.25;99359.94;5029664;28;20029;-72
2022/01/04 11:28:42;;;;;;;5.50;0.38;;;;;;;3.80;56.62;99368.50;5001847;28;20151;-74
2022/01/04 11:31:44;;;;;;;5.20;0.38;;;;;;;3.94;55.58;99375.75;5016352;28;20028;-75
2022/01/04 11:34:24;;;;;;;8.38;0.60;;;;;;;4.04;55.63;99384.03;5027485;28;20765;-73
2022/01/04 11:36:51;;;;;;;6.00;0.40;;;;;;;3.88;54.31;99386.34;5017969;28;20033;-73
2022/01/04 11:39:39;;;;;;;3.78;0.30;;;;;;;4.14;53.78;99388.81;5028320;28;20057;-74
2022/01/04 11:42:07;;;;;;;7.13;0.55;;;;;;;4.23;53.87;99382.47;5004819;28;20049;-73
2022/01/04 11:44:35;;;;;;;3.78;0.40;;;;;;;4.65;52.68;99384.28;5011780;28;20041;-74
2022/01/04 11:47:09;;;;;;;3.45;0.20;;;;;;;4.53;52.25;99379.59;5025058;28;20053;-73
2022/01/04 11:49:38;;;;;;;6.32;0.60;;;;;;;4.04;52.04;99381.44;5027723;28;20040;-72
2022/01/04 11:52:09;;;;;;;4.97;0.40;;;;;;;4.38;51.56;99381.00;5011689;28;20173;-72
2022/01/04 11:54:34;;;;;;;4.85;0.85;;;;;;;4.33;50.44;99394.13;5026904;28;20488;-72